Time;durP1;ratioP1;P1;durP2;ratioP2;P2;SDS_P1;SDS_P2;PMS_P1;PMS_P2;Temp;Humidity;BMP_temperature;BMP_pressure;BME280_temperature;BME280_humidity;BME280_pressure;Samples;Min_cycle;Max_cycle;Signal;HPM_P1;HPM_P2
2023/01/27 00:02:37;;;;;;;13.57;3.08;;;;;;;3.67;98.24;102415.00;5315720;23;20036;-69
2023/01/27 00:05:03;;;;;;;14.38;3.35;;;;;;;3.66;98.42;102413.19;5289700;23;20202;-63
2023/01/27 00:07:28;;;;;;;11.35;2.97;;;;;;;3.63;98.39;102419.00;5085678;23;20465;-63
2023/01/27 00:14:57;;;;;;;8.88;3.00;;;;;;;3.59;98.43;102417.00;4986717;23;20544;-63
2023/01/27 00:17:22;;;;;;;11.65;2.88;;;;;;;3.60;98.88;102417.88;4985604;23;20435;-95
2023/01/27 00:19:47;;;;;;;13.50;3.03;;;;;;;3.60;98.88;102423.94;4970319;28;20031;-96
2023/01/27 00:24:57;;;;;;;13.63;3.65;;;;;;;3.61;99.31;102414.53;4972856;28;20041;-95
2023/01/27 00:27:22;;;;;;;10.50;3.55;;;;;;;3.58;99.63;102410.03;4955252;28;20031;-96
2023/01/27 00:29:48;;;;;;;14.75;3.63;;;;;;;3.58;99.82;102412.63;4956676;28;21038;-96
2023/01/27 00:34:57;;;;;;;15.50;3.42;;;;;;;3.56;99.80;102416.72;4970008;28;20110;-96
2023/01/27 00:37:23;;;;;;;17.17;3.58;;;;;;;3.55;99.63;102414.97;4952618;28;21478;-95
2023/01/27 00:39:51;;;;;;;12.15;3.22;;;;;;;3.55;99.58;102420.13;4969593;28;20022;-96
2023/01/27 00:42:18;;;;;;;8.23;3.00;;;;;;;3.54;99.61;102417.41;4952633;28;20038;-95
2023/01/27 00:45:47;;;;;;;14.52;3.42;;;;;;;3.52;99.54;102414.72;4970554;28;20972;-96
2023/01/27 00:47:29;;;;;;;12.15;3.03;;;;;;;3.52;99.17;102419.88;4951201;29;20035;-95
2023/01/27 00:49:55;;;;;;;15.23;3.75;;;;;;;3.52;99.31;102424.13;4950665;29;20027;-96
2023/01/27 00:52:20;;;;;;;13.70;3.75;;;;;;;3.51;99.79;102424.91;4931144;29;20036;-96
2023/01/27 00:54:45;;;;;;;15.15;3.40;;;;;;;3.49;99.62;102419.66;4934448;29;20970;-95
2023/01/27 01:04:47;;;;;;;12.85;3.67;;;;;;;3.45;99.54;102436.53;5002719;23;20080;-63
2023/01/27 01:07:13;;;;;;;13.57;3.60;;;;;;;3.46;99.98;102432.25;5050475;23;20129;-63
2023/01/27 01:09:38;;;;;;;17.42;3.53;;;;;;;3.45;99.74;102433.06;5104501;23;20799;-63
2023/01/27 01:12:03;;;;;;;14.55;4.55;;;;;;;3.44;99.57;102433.84;5139701;23;20022;-63
2023/01/27 01:22:04;;;;;;;13.25;4.20;;;;;;;3.38;100.00;102438.50;4987657;23;20973;-69
2023/01/27 01:24:29;;;;;;;15.05;4.30;;;;;;;3.37;100.00;102449.59;5214854;23;20733;-70
2023/01/27 01:26:54;;;;;;;16.08;4.32;;;;;;;3.36;100.00;102447.78;4976588;28;20074;-70
2023/01/27 01:29:20;;;;;;;12.93;4.13;;;;;;;3.36;100.00;102452.94;5011758;23;21263;-63
2023/01/27 01:31:45;;;;;;;15.50;4.63;;;;;;;3.36;100.00;102452.94;4983039;28;20054;-63
2023/01/27 01:34:10;;;;;;;17.08;4.50;;;;;;;3.35;100.00;102452.03;4998672;23;20056;-96
2023/01/27 01:36:36;;;;;;;12.40;4.28;;;;;;;3.34;100.00;102449.34;4959047;28;20030;-96
2023/01/27 01:39:01;;;;;;;14.52;4.65;;;;;;;3.33;100.00;102450.13;4956946;28;20030;-95
2023/01/27 01:41:27;;;;;;;11.85;4.40;;;;;;;3.31;100.00;102448.31;4975087;28;20064;-95
2023/01/27 01:43:52;;;;;;;13.85;4.60;;;;;;;3.31;100.00;102455.16;4955272;28;20034;-96
2023/01/27 01:46:19;;;;;;;15.75;5.40;;;;;;;3.31;99.97;102461.19;4962228;28;20035;-96
2023/01/27 01:49:02;;;;;;;14.40;5.05;;;;;;;3.30;98.78;102456.84;4963570;28;20031;-95
2023/01/27 01:51:32;;;;;;;13.43;5.10;;;;;;;3.30;97.72;102459.41;4964121;28;20049;-95
2023/01/27 01:54:05;;;;;;;13.35;4.75;;;;;;;3.28;97.61;102453.22;4962508;28;20045;-95
2023/01/27 01:56:37;;;;;;;13.57;5.32;;;;;;;3.29;97.75;102451.56;4964827;28;20057;-94
2023/01/27 01:59:08;;;;;;;14.20;5.22;;;;;;;3.27;97.49;102443.72;4965187;28;20034;-93
2023/01/27 02:01:34;;;;;;;14.25;4.82;;;;;;;3.28;98.19;102454.91;4959211;28;20027;-94
2023/01/27 02:04:03;;;;;;;12.75;5.20;;;;;;;3.27;98.04;102453.09;4958128;28;20022;-94
2023/01/27 02:06:35;;;;;;;14.95;5.28;;;;;;;3.25;97.87;102452.09;4959335;28;20076;-94
2023/01/27 02:09:00;;;;;;;13.75;5.47;;;;;;;3.22;97.93;102445.03;4963148;28;20034;-93
2023/01/27 02:11:27;;;;;;;15.07;4.95;;;;;;;3.24;98.04;102450.28;4964645;28;21365;-93
2023/01/27 02:13:52;;;;;;;15.52;5.43;;;;;;;3.21;97.75;102450.94;4958986;28;20391;-92
2023/01/27 02:16:18;;;;;;;16.17;5.32;;;;;;;3.19;97.76;102447.38;4959136;28;20018;-93
2023/01/27 02:18:46;;;;;;;16.92;5.35;;;;;;;3.20;98.20;102451.75;4961926;28;20018;-93
2023/01/27 02:21:12;;;;;;;14.65;5.47;;;;;;;3.18;98.59;102450.69;4961823;28;20134;-93
2023/01/27 02:24:11;;;;;;;15.75;5.63;;;;;;;3.20;98.40;102453.41;4961249;28;20675;-93
2023/01/27 02:26:41;;;;;;;14.52;5.18;;;;;;;3.19;98.82;102451.63;4914248;28;20035;-93
2023/01/27 02:29:13;;;;;;;12.68;5.38;;;;;;;3.18;98.39;102455.84;4963105;28;20078;-94
2023/01/27 02:31:39;;;;;;;14.70;5.50;;;;;;;3.18;98.57;102457.53;4963426;28;20084;-93
2023/01/27 02:34:08;;;;;;;13.45;5.18;;;;;;;3.19;98.62;102454.19;4961794;28;20046;-94
2023/01/27 02:36:49;;;;;;;13.55;5.30;;;;;;;3.19;98.53;102464.50;4960504;28;20365;-93
2023/01/27 02:39:17;;;;;;;14.38;5.53;;;;;;;3.16;98.45;102465.16;4959771;28;20117;-96
2023/01/27 02:41:49;;;;;;;16.13;5.25;;;;;;;3.17;98.56;102468.63;4964918;28;20377;-93
2023/01/27 02:44:15;;;;;;;14.85;5.40;;;;;;;3.16;99.03;102467.72;4961416;28;20107;-94
2023/01/27 02:46:40;;;;;;;19.60;5.47;;;;;;;3.17;99.21;102469.50;4965305;28;20108;-93
2023/01/27 02:49:08;;;;;;;15.10;6.60;;;;;;;3.17;98.85;102466.03;4964525;28;20023;-93
2023/01/27 02:51:34;;;;;;;13.85;5.68;;;;;;;3.15;98.94;102458.19;4967060;28;20400;-94
2023/01/27 02:53:59;;;;;;;13.80;5.72;;;;;;;3.16;99.11;102469.38;4965231;28;20026;-93
2023/01/27 02:56:25;;;;;;;14.45;6.00;;;;;;;3.13;99.01;102464.91;4965842;28;20468;-94
2023/01/27 02:58:50;;;;;;;18.05;5.82;;;;;;;3.11;98.59;102463.88;4964521;28;20129;-93
2023/01/27 03:01:16;;;;;;;13.70;5.85;;;;;;;3.11;98.64;102466.44;4966448;28;20121;-93
2023/01/27 03:03:46;;;;;;;13.07;6.20;;;;;;;3.10;98.96;102465.56;4962912;28;20026;-94
2023/01/27 03:06:14;;;;;;;19.60;6.80;;;;;;;3.10;99.13;102467.22;4966691;28;20025;-93
2023/01/27 03:08:40;;;;;;;17.40;6.10;;;;;;;3.11;98.91;102466.44;5005652;23;20046;-68
2023/01/27 03:11:07;;;;;;;15.05;6.00;;;;;;;3.09;99.06;102470.59;5075613;23;20053;-69
2023/01/27 03:13:32;;;;;;;17.13;6.20;;;;;;;3.10;99.35;102473.28;5180671;23;20161;-70
2023/01/27 03:18:28;;;;;;;16.23;6.15;;;;;;;3.10;99.10;102474.94;5260614;23;20141;-63
2023/01/27 03:21:03;;;;;;;17.33;6.10;;;;;;;3.09;99.31;102473.16;5143554;23;20054;31
2023/01/27 03:23:33;;;;;;;19.02;6.10;;;;;;;3.09;99.52;102474.06;5267520;23;20063;-63
2023/01/27 03:25:58;;;;;;;16.20;6.80;;;;;;;3.09;99.35;102479.19;5366438;23;20026;-69
2023/01/27 03:28:23;;;;;;;16.08;6.45;;;;;;;3.10;99.28;102482.66;5228573;23;20073;-69
2023/01/27 03:30:49;;;;;;;19.80;6.93;;;;;;;3.11;99.03;102481.91;5209068;23;20061;-70
2023/01/27 03:33:14;;;;;;;20.90;6.65;;;;;;;3.09;98.93;102481.78;5151222;23;20041;-70
2023/01/27 03:35:47;;;;;;;16.20;5.72;;;;;;;3.08;98.48;102492.84;5335437;23;20069;-70
2023/01/27 03:51:13;;;;;;;18.83;7.88;;;;;;;3.06;99.36;102499.56;5229738;23;20538;-70
2023/01/27 03:53:38;;;;;;;19.25;7.18;;;;;;;3.06;99.54;102498.69;5170329;23;20053;-71
2023/01/27 03:56:05;;;;;;;16.88;7.00;;;;;;;3.06;99.83;102498.69;5088199;23;20062;-70
2023/01/27 03:58:35;;;;;;;17.05;6.85;;;;;;;3.05;100.00;102502.91;5177497;23;20070;-70
2023/01/27 04:01:18;;;;;;;24.50;7.07;;;;;;;3.03;100.00;102504.47;5034450;23;20063;-70
2023/01/27 04:08:50;;;;;;;20.95;7.55;;;;;;;3.03;100.00;102501.88;5072657;23;20062;-70
2023/01/27 04:16:29;;;;;;;22.27;8.13;;;;;;;3.04;100.00;102510.50;4976135;23;20061;-63
2023/01/27 04:18:55;;;;;;;26.23;8.52;;;;;;;3.04;100.00;102505.34;5156116;23;20461;-70
2023/01/27 04:21:21;;;;;;;23.90;8.43;;;;;;;3.02;100.00;102502.66;5098720;23;20058;-70
2023/01/27 04:29:13;;;;;;;21.17;7.88;;;;;;;3.02;100.00;102494.94;5110268;23;20061;-68
2023/01/27 04:34:58;;;;;;;22.17;8.35;;;;;;;3.02;100.00;102502.66;5137800;23;20062;31
2023/01/27 04:37:33;;;;;;;24.65;8.52;;;;;;;3.05;100.00;102513.19;5105360;23;20063;-63
2023/01/27 04:39:58;;;;;;;29.17;9.38;;;;;;;3.05;100.00;102514.88;5216898;23;20026;-70
2023/01/27 04:49:52;;;;;;;28.20;11.02;;;;;;;3.03;100.00;102526.75;4961918;28;20043;-70
2023/01/27 04:52:18;;;;;;;28.00;9.73;;;;;;;3.02;100.00;102519.78;5074818;23;20350;-70
2023/01/27 04:54:43;;;;;;;23.90;9.15;;;;;;;3.02;100.00;102520.69;5294260;23;20059;-64
2023/01/27 04:59:56;;;;;;;26.08;8.80;;;;;;;3.04;100.00;102528.53;5188773;23;20063;-70
2023/01/27 05:02:31;;;;;;;27.45;9.23;;;;;;;3.03;100.00;102530.22;5293500;23;20112;31
2023/01/27 05:04:57;;;;;;;27.50;9.50;;;;;;;3.03;100.00;102524.19;5296409;23;20055;-69
2023/01/27 05:07:22;;;;;;;28.60;9.80;;;;;;;3.02;100.00;102527.53;5197431;23;20911;-69
2023/01/27 05:09:48;;;;;;;26.70;8.90;;;;;;;2.99;100.00;102533.31;5071911;23;20522;-63
2023/01/27 05:12:13;;;;;;;24.17;8.68;;;;;;;2.99;99.65;102535.00;5109657;23;20022;-69
2023/01/27 05:14:39;;;;;;;22.55;8.05;;;;;;;2.98;99.71;102540.91;5206730;23;20511;-70
2023/01/27 05:19:43;;;;;;;22.25;8.02;;;;;;;2.98;99.35;102540.91;5216758;23;1103725;-70
2023/01/27 05:22:10;;;;;;;22.17;8.57;;;;;;;2.99;99.48;102545.31;5093612;23;20047;-64
2023/01/27 05:24:37;;;;;;;24.52;8.68;;;;;;;2.98;99.24;102546.06;5290208;23;20051;-69
2023/01/27 05:27:02;;;;;;;23.80;9.07;;;;;;;2.99;99.20;102553.03;5147077;23;20136;-70
2023/01/27 05:29:28;;;;;;;23.20;9.10;;;;;;;2.99;99.31;102553.03;5166411;23;20689;-63
2023/01/27 05:31:53;;;;;;;25.02;8.82;;;;;;;3.01;99.40;102554.03;5174599;23;20085;-70
2023/01/27 05:36:53;;;;;;;22.38;8.40;;;;;;;3.00;99.40;102559.94;5007649;23;20545;-63
2023/01/27 05:46:51;;;;;;;22.98;8.63;;;;;;;3.01;98.19;102561.75;5285591;23;20036;-69
2023/01/27 05:49:16;;;;;;;21.58;8.15;;;;;;;3.00;98.33;102565.09;5423189;23;20030;-68
2023/01/27 05:51:42;;;;;;;22.80;8.98;;;;;;;2.98;98.33;102564.97;5073505;23;20074;-69
2023/01/27 05:59:14;;;;;;;21.52;8.48;;;;;;;2.98;98.25;102561.50;4786056;26;20054;-94
2023/01/27 06:01:41;;;;;;;19.13;7.32;;;;;;;2.98;98.74;102564.09;4977566;28;20033;-94
2023/01/27 06:04:06;;;;;;;22.88;8.50;;;;;;;2.98;98.23;102567.56;4980939;28;20059;-94
2023/01/27 06:06:32;;;;;;;21.08;8.60;;;;;;;2.96;98.50;102567.44;4995498;28;20032;-95
2023/01/27 06:08:58;;;;;;;22.20;8.55;;;;;;;2.98;98.83;102576.97;4983179;28;20030;-95
2023/01/27 06:11:25;;;;;;;22.23;8.63;;;;;;;2.97;98.49;102573.50;4975782;28;20026;-94
2023/01/27 06:13:52;;;;;;;22.02;7.72;;;;;;;2.98;98.54;102580.44;4979508;28;20124;-94
2023/01/27 06:16:19;;;;;;;21.23;8.52;;;;;;;2.99;98.54;102578.78;4980105;28;20045;-94
2023/01/27 06:19:14;;;;;;;22.48;7.93;;;;;;;2.99;98.66;102569.38;4987101;28;20041;-96
2023/01/27 06:21:39;;;;;;;21.85;7.97;;;;;;;3.00;98.47;102576.31;4975505;28;20034;-94
2023/01/27 06:24:05;;;;;;;22.10;8.95;;;;;;;3.00;98.37;102585.69;4982385;28;20029;-95
2023/01/27 06:34:44;;;;;;;21.92;8.23;;;;;;;3.04;98.47;102587.75;5140377;23;20689;-69
2023/01/27 06:37:09;;;;;;;20.40;8.35;;;;;;;3.04;98.17;102587.75;5126407;23;20039;-68
2023/01/27 06:39:35;;;;;;;21.60;7.78;;;;;;;3.05;98.29;102587.00;4989629;23;20525;-62
2023/01/27 06:42:00;;;;;;;19.08;7.90;;;;;;;3.06;98.40;102586.22;4973856;28;20172;-62
2023/01/27 06:44:25;;;;;;;17.55;8.05;;;;;;;3.06;98.07;102591.38;5133553;23;20022;-62
2023/01/27 06:49:22;;;;;;;20.58;7.75;;;;;;;3.07;97.75;102591.50;5040839;23;20133;-96
2023/01/27 06:51:48;;;;;;;21.48;8.10;;;;;;;3.07;97.71;102580.28;5008939;28;20038;-96
2023/01/27 06:54:13;;;;;;;16.65;7.38;;;;;;;3.08;97.50;102589.81;4992587;28;20049;-96
2023/01/27 06:56:39;;;;;;;20.52;8.20;;;;;;;3.08;97.74;102584.66;5007547;28;20460;-95
2023/01/27 06:59:04;;;;;;;19.35;7.28;;;;;;;3.08;97.88;102582.97;4991697;28;20033;-96
2023/01/27 07:01:29;;;;;;;19.23;7.53;;;;;;;3.08;97.97;102587.25;4991218;28;20053;-96
2023/01/27 07:03:55;;;;;;;18.48;7.20;;;;;;;3.09;98.28;102594.19;4991574;28;20030;-96
2023/01/27 07:06:20;;;;;;;16.77;6.95;;;;;;;3.07;97.97;102588.94;4989912;28;20049;-96
2023/01/27 07:08:46;;;;;;;16.60;7.03;;;;;;;3.07;97.85;102586.34;4990813;28;20018;-96
2023/01/27 07:11:15;;;;;;;15.25;6.30;;;;;;;3.06;97.73;102600.00;4991610;28;20030;-96
2023/01/27 07:13:43;;;;;;;14.27;5.75;;;;;;;3.06;97.65;102593.97;4991553;28;20041;-96
2023/01/27 07:16:11;;;;;;;15.13;5.93;;;;;;;3.06;97.59;102588.81;4994412;28;20034;-96
2023/01/27 07:18:37;;;;;;;17.15;6.63;;;;;;;3.07;97.43;102596.66;4995301;28;20269;-96
2023/01/27 07:21:04;;;;;;;14.80;6.25;;;;;;;3.07;97.56;102598.31;5010924;28;20050;-96
2023/01/27 07:23:30;;;;;;;14.82;5.97;;;;;;;3.07;97.49;102596.66;4993729;28;20090;-96
2023/01/27 07:25:58;;;;;;;14.55;6.25;;;;;;;3.07;97.40;102606.03;5011831;28;20073;-96
2023/01/27 07:28:24;;;;;;;15.23;6.77;;;;;;;3.08;97.53;102601.00;5009591;28;20022;-96
2023/01/27 07:30:52;;;;;;;14.43;5.72;;;;;;;3.11;97.51;102605.50;5009376;28;20042;-96
2023/01/27 07:33:20;;;;;;;13.60;5.93;;;;;;;3.09;97.74;102604.50;4995414;28;20030;-96
2023/01/27 07:35:48;;;;;;;13.82;5.50;;;;;;;3.09;97.71;102612.22;5012055;28;20093;-96
2023/01/27 07:38:14;;;;;;;12.60;5.45;;;;;;;3.11;97.37;102615.81;5007173;28;20085;-96
2023/01/27 07:40:42;;;;;;;11.20;4.97;;;;;;;3.11;97.12;102609.00;4996482;28;20026;-96
2023/01/27 07:43:12;;;;;;;13.18;5.53;;;;;;;3.13;96.86;102609.13;5009397;28;20042;-96
2023/01/27 07:45:41;;;;;;;12.80;5.82;;;;;;;3.13;96.84;102609.13;5015225;28;20026;-96
2023/01/27 07:48:11;;;;;;;13.80;6.00;;;;;;;3.13;96.91;102622.03;4997482;28;20045;-96
2023/01/27 07:50:41;;;;;;;10.73;5.05;;;;;;;3.12;96.93;102620.22;5001136;28;20046;-96
2023/01/27 07:53:07;;;;;;;11.98;5.22;;;;;;;3.13;97.09;102620.34;4999179;28;20038;-96
2023/01/27 07:55:33;;;;;;;13.30;5.30;;;;;;;3.14;97.12;102631.53;4997282;28;20038;-96
2023/01/27 07:58:01;;;;;;;11.57;5.50;;;;;;;3.12;96.94;102623.66;4975318;28;20030;-96
2023/01/27 08:00:29;;;;;;;11.60;5.32;;;;;;;3.13;96.84;102629.75;4990026;28;20034;-96
2023/01/27 08:02:57;;;;;;;12.18;5.95;;;;;;;3.13;96.86;102624.59;4992759;28;20022;-96
2023/01/27 08:05:25;;;;;;;11.07;5.30;;;;;;;3.16;97.06;102631.66;4989196;28;20033;-96
2023/01/27 08:07:51;;;;;;;13.15;5.28;;;;;;;3.14;96.98;102626.38;4991689;28;20623;-96
2023/01/27 08:10:19;;;;;;;12.05;5.60;;;;;;;3.15;96.69;102625.59;4993463;28;20018;-96
2023/01/27 08:12:46;;;;;;;13.15;5.30;;;;;;;3.16;96.95;102626.50;5013529;28;20066;-96
2023/01/27 08:15:13;;;;;;;12.20;5.70;;;;;;;3.16;96.49;102626.50;4994377;28;20022;-96
2023/01/27 08:17:41;;;;;;;11.90;5.43;;;;;;;3.17;96.67;102629.19;4975422;28;20502;-96
2023/01/27 08:20:10;;;;;;;13.57;6.32;;;;;;;3.18;96.62;102628.44;4993922;28;20026;-96
2023/01/27 08:22:41;;;;;;;13.10;5.90;;;;;;;3.18;96.67;102633.59;4995294;28;20094;-96
2023/01/27 08:25:07;;;;;;;14.90;5.82;;;;;;;3.18;96.69;102631.00;4991134;28;20074;-96
2023/01/27 08:30:03;;;;;;;12.32;6.13;;;;;;;3.22;96.56;102634.75;5062172;23;20062;-96
2023/01/27 08:32:33;;;;;;;12.15;5.43;;;;;;;3.22;96.33;102638.22;5001314;28;20037;-96
2023/01/27 08:35:00;;;;;;;12.60;6.00;;;;;;;3.22;96.58;102640.78;4986948;28;20026;-96
2023/01/27 08:37:26;;;;;;;14.07;5.90;;;;;;;3.24;96.47;102646.97;4990337;28;20026;-96
2023/01/27 08:39:51;;;;;;;12.98;5.82;;;;;;;3.24;96.35;102638.34;4988540;28;20045;-96
2023/01/27 08:42:17;;;;;;;11.70;5.57;;;;;;;3.26;96.34;102642.84;4982432;28;20456;-96
2023/01/27 08:44:43;;;;;;;13.45;5.53;;;;;;;3.26;96.60;102644.53;4980157;28;20022;-96
2023/01/27 08:47:17;;;;;;;13.30;5.47;;;;;;;3.28;96.18;102649.00;5000442;28;20050;-96
2023/01/27 08:49:43;;;;;;;14.30;5.70;;;;;;;3.28;96.27;102651.59;4981468;28;20080;-96
2023/01/27 08:52:08;;;;;;;11.93;5.60;;;;;;;3.30;96.91;102654.28;4992320;28;20022;-96
2023/01/27 08:54:34;;;;;;;11.48;5.45;;;;;;;3.31;97.15;102664.72;4983769;28;20065;-96
2023/01/27 08:56:59;;;;;;;12.27;5.63;;;;;;;3.33;97.20;102667.44;4984852;28;20062;-96
2023/01/27 08:59:28;;;;;;;11.15;5.38;;;;;;;3.36;96.95;102669.34;4987261;28;20688;-96
2023/01/27 09:01:53;;;;;;;12.88;5.47;;;;;;;3.35;97.04;102670.16;4990236;28;20073;-96
2023/01/27 09:04:24;;;;;;;12.85;6.30;;;;;;;3.36;96.93;102679.66;4979942;28;20094;-96
2023/01/27 09:07:03;;;;;;;;;;;;;;;;;;;;;
2023/01/27 09:09:32;;;;;;;;;;;;;;;3.42;97.41;102686.25;5000385;28;20137;-96
2023/01/27 09:12:01;;;;;;;13.75;5.50;;;;;;;3.40;96.49;102681.72;5001905;28;19971;-96
2023/01/27 09:14:34;;;;;;;12.55;4.97;;;;;;;3.39;96.17;102680.84;4985770;28;20072;-96
2023/01/27 09:16:59;;;;;;;11.63;5.50;;;;;;;3.40;96.31;102679.16;5087720;23;20052;-62
2023/01/27 09:19:33;;;;;;;10.55;4.53;;;;;;;3.40;95.45;102677.47;4948164;23;20122;-96
2023/01/27 09:21:58;;;;;;;12.68;5.25;;;;;;;3.44;96.35;102676.06;4710397;23;20051;-69
2023/01/27 09:29:46;;;;;;;;;;;;;;;;;;;;;
2023/01/27 09:40:32;;;;;;;10.95;4.97;;;;;;;3.63;94.91;102701.66;5369352;23;20021;-64
2023/01/27 09:43:28;;;;;;;11.38;5.30;;;;;;;3.67;95.13;102695.09;4936065;28;20114;-71
2023/01/27 09:49:15;;;;;;;9.82;4.45;;;;;;;3.67;94.31;102698.56;5190780;23;20119;-64
2023/01/27 09:54:38;;;;;;;9.90;4.35;;;;;;;3.67;93.83;102700.25;5087814;23;20025;-72
2023/01/27 09:57:25;;;;;;;10.68;4.38;;;;;;;3.66;94.16;102704.47;4998865;23;20054;-71
2023/01/27 10:07:33;;;;;;;10.35;4.38;;;;;;;3.69;94.35;102715.03;4917695;29;20176;-71
2023/01/27 10:17:58;;;;;;;11.65;4.40;;;;;;;3.65;94.19;102713.00;5042967;23;20054;-96
2023/01/27 10:20:46;;;;;;;10.02;4.60;;;;;;;3.67;94.35;102710.56;4959797;28;20081;-96
2023/01/27 10:23:31;;;;;;;8.90;4.25;;;;;;;3.71;94.79;102712.59;4965460;28;20077;-94
2023/01/27 10:25:56;;;;;;;10.27;4.85;;;;;;;3.75;94.13;102704.31;4961024;28;20031;-95
2023/01/27 10:28:27;;;;;;;10.52;4.70;;;;;;;3.75;94.59;102702.66;4968044;28;20034;-96
2023/01/27 10:31:13;;;;;;;9.48;4.35;;;;;;;3.79;94.03;102698.66;4961991;28;20045;-96
2023/01/27 10:33:53;;;;;;;9.63;4.50;;;;;;;3.79;93.19;102699.53;4967261;28;20034;-96
2023/01/27 10:36:28;;;;;;;9.35;4.28;;;;;;;3.84;93.67;102707.66;4969844;28;20022;-96
2023/01/27 10:39:08;;;;;;;9.07;4.30;;;;;;;3.86;93.34;102700.94;4984100;28;20034;-96
2023/01/27 10:41:56;;;;;;;8.40;4.63;;;;;;;3.86;93.71;102700.94;4968989;28;20026;-96
2023/01/27 10:44:50;;;;;;;10.67;4.53;;;;;;;3.89;93.34;102695.16;4970750;28;20037;-96
2023/01/27 10:47:51;;;;;;;9.48;4.55;;;;;;;3.93;93.03;102697.19;4952638;28;20034;-96
2023/01/27 10:50:35;;;;;;;10.35;4.80;;;;;;;3.92;93.55;102696.28;4955970;28;20110;-96
2023/01/27 10:53:04;;;;;;;10.13;4.70;;;;;;;3.94;94.02;102689.59;4954182;28;20031;-96
2023/01/27 10:58:34;;;;;;;10.15;4.65;;;;;;;3.98;92.24;102704.53;4816676;23;20094;-71
2023/01/27 11:01:31;;;;;;;11.52;5.20;;;;;;;3.98;93.85;102699.38;5062542;23;20044;-96
2023/01/27 11:04:19;;;;;;;9.75;4.65;;;;;;;3.95;93.22;102691.38;5003853;28;20055;-96
2023/01/27 11:06:49;;;;;;;9.57;4.00;;;;;;;3.94;92.84;102687.00;4997237;28;20046;-96
2023/01/27 11:09:43;;;;;;;11.25;4.32;;;;;;;3.92;92.70;102688.53;4990189;28;20019;-96
2023/01/27 11:12:18;;;;;;;11.63;4.32;;;;;;;3.91;92.92;102694.50;5009643;28;20034;-96
2023/01/27 11:14:56;;;;;;;10.15;4.35;;;;;;;3.94;93.06;102692.16;5016853;28;20038;-96
2023/01/27 11:17:51;;;;;;;9.75;4.10;;;;;;;3.92;93.71;102680.81;5000043;28;20131;-96
2023/01/27 11:20:33;;;;;;;9.07;3.88;;;;;;;3.86;93.10;102680.31;5018698;28;20081;-96
2023/01/27 11:23:08;;;;;;;9.70;4.15;;;;;;;3.85;92.98;102688.81;5004660;28;20149;-96
2023/01/27 11:25:51;;;;;;;10.38;4.85;;;;;;;3.83;92.78;102680.97;4994133;28;20038;-96
2023/01/27 11:29:01;;;;;;;9.10;4.38;;;;;;;3.82;92.66;102693.72;4977513;28;20037;-95
2023/01/27 11:31:53;;;;;;;9.93;4.20;;;;;;;3.80;92.49;102685.00;4979349;28;20076;-96
2023/01/27 11:34:29;;;;;;;10.75;4.55;;;;;;;3.82;93.21;102683.41;4978696;28;20058;-96
2023/01/27 11:36:55;;;;;;;10.80;4.68;;;;;;;3.85;93.85;102685.34;4976657;28;20463;-96
2023/01/27 11:39:23;;;;;;;10.15;4.30;;;;;;;3.88;93.85;102683.94;4982062;28;20026;-95
2023/01/27 11:41:56;;;;;;;9.80;4.50;;;;;;;3.89;93.16;102683.13;4976336;28;20508;-95
2023/01/27 11:44:29;;;;;;;9.30;4.32;;;;;;;3.95;93.32;102680.16;4972535;28;20088;-94
2023/01/27 11:46:55;;;;;;;10.60;4.82;;;;;;;4.00;93.33;102678.84;4973846;28;20495;-94
2023/01/27 11:49:36;;;;;;;10.30;4.45;;;;;;;4.05;93.65;102680.09;4988447;28;20022;-95
2023/01/27 11:52:15;;;;;;;10.27;4.70;;;;;;;4.11;94.72;102677.13;4980352;28;20452;-94
2023/01/27 11:54:56;;;;;;;10.32;4.40;;;;;;;4.12;93.73;102677.25;4992804;28;20033;-95
2023/01/27 11:57:27;;;;;;;10.68;4.93;;;;;;;4.13;93.12;102680.75;4975499;28;20026;-96
2023/01/27 12:00:11;;;;;;;9.93;4.63;;;;;;;4.15;93.52;102679.16;4993752;28;20019;-96
2023/01/27 12:03:22;;;;;;;11.60;4.97;;;;;;;4.15;93.56;102677.47;4987312;28;20042;-96
2023/01/27 12:06:03;;;;;;;11.15;4.85;;;;;;;4.14;92.93;102672.19;4960965;28;20050;-96
2023/01/27 12:09:27;;;;;;;10.10;4.35;;;;;;;4.12;92.06;102678.94;4983766;28;20030;-96
2023/01/27 12:12:22;;;;;;;10.02;4.75;;;;;;;4.08;92.48;102672.59;4976597;28;20093;-96
2023/01/27 12:15:04;;;;;;;9.88;4.43;;;;;;;4.06;91.80;102670.72;4973957;28;20027;-96
2023/01/27 12:17:49;;;;;;;9.82;4.43;;;;;;;4.07;91.80;102680.22;4975065;28;20039;-96
2023/01/27 12:20:39;;;;;;;10.63;4.95;;;;;;;4.06;91.58;102668.13;4994905;28;20046;-95
2023/01/27 12:23:28;;;;;;;14.60;5.28;;;;;;;4.02;91.36;102661.81;4978396;28;20030;-96
2023/01/27 12:26:05;;;;;;;12.40;4.80;;;;;;;4.04;92.30;102662.84;4977314;28;20041;-95
2023/01/27 12:28:48;;;;;;;10.95;4.80;;;;;;;4.00;91.90;102659.13;4973936;28;20036;-95
2023/01/27 12:31:18;;;;;;;10.48;4.55;;;;;;;4.02;91.36;102668.66;4990812;28;20030;-95
2023/01/27 12:33:49;;;;;;;10.93;4.97;;;;;;;3.99;92.08;102662.47;4973968;28;20031;-93
2023/01/27 12:36:17;;;;;;;10.32;4.78;;;;;;;4.00;92.60;102661.69;4987026;28;20022;-93
2023/01/27 12:38:55;;;;;;;11.35;5.03;;;;;;;3.99;91.84;102646.97;4989234;28;20048;-96
2023/01/27 12:41:30;;;;;;;10.85;5.05;;;;;;;4.00;92.02;102653.94;4985427;28;20034;-96
2023/01/27 12:44:15;;;;;;;11.18;4.60;;;;;;;4.05;92.69;102650.84;5086896;23;20063;-64
2023/01/27 12:47:03;;;;;;;9.98;4.45;;;;;;;4.09;91.84;102648.63;4982769;28;20041;-64
2023/01/27 12:52:20;;;;;;;10.73;5.30;;;;;;;4.16;92.99;102642.28;5030722;23;20069;-96
2023/01/27 12:54:46;;;;;;;9.68;4.38;;;;;;;4.21;92.93;102640.94;4999781;28;20376;-96
2023/01/27 12:57:16;;;;;;;9.55;4.78;;;;;;;4.22;92.70;102645.34;5000593;28;20021;-96
2023/01/27 12:59:49;;;;;;;9.90;4.20;;;;;;;4.22;92.46;102647.03;4997265;28;20022;-96
2023/01/27 13:02:22;;;;;;;11.07;4.43;;;;;;;4.22;91.96;102641.88;4997040;28;20040;-96
2023/01/27 13:05:15;;;;;;;9.55;4.80;;;;;;;4.22;91.49;102639.28;4998038;28;20145;-96
2023/01/27 13:07:47;;;;;;;9.70;4.57;;;;;;;4.21;91.87;102632.31;4990262;28;20128;-96
2023/01/27 13:10:21;;;;;;;10.07;4.55;;;;;;;4.23;92.01;102631.66;5004683;28;20053;-95
2023/01/27 13:12:48;;;;;;;10.30;4.70;;;;;;;4.30;92.57;102648.50;4983768;28;20022;-96
2023/01/27 13:15:19;;;;;;;11.88;5.13;;;;;;;4.29;91.14;102642.44;4995941;28;20061;-95
2023/01/27 13:17:47;;;;;;;10.55;4.53;;;;;;;4.31;91.11;102642.56;4995843;28;20121;-96
2023/01/27 13:20:21;;;;;;;10.73;4.80;;;;;;;4.33;92.04;102639.34;5010393;28;20589;-95
2023/01/27 13:23:04;;;;;;;11.52;5.07;;;;;;;4.37;91.40;102637.88;4995358;28;20026;-96
2023/01/27 13:25:54;;;;;;;9.70;4.60;;;;;;;4.40;92.02;102639.81;5011107;28;20056;-95
2023/01/27 13:28:22;;;;;;;;;;;;;;;4.44;92.97;102636.69;4994677;28;20036;-96
2023/01/27 13:30:52;;;;;;;11.63;4.82;;;;;;;4.39;92.27;102635.41;4995500;28;19914;-95
2023/01/27 13:33:42;;;;;;;9.45;4.25;;;;;;;4.39;92.19;102633.75;4997573;28;20028;-95
2023/01/27 13:36:25;;;;;;;11.27;4.85;;;;;;;4.39;91.32;102638.00;4993119;28;20025;-96
2023/01/27 13:39:27;;;;;;;10.40;4.60;;;;;;;4.41;91.54;102639.91;4986541;28;20029;-96
2023/01/27 13:42:11;;;;;;;10.63;4.47;;;;;;;4.41;91.27;102639.03;4974385;28;20472;-95
2023/01/27 13:44:45;;;;;;;9.07;4.40;;;;;;;4.40;90.56;102644.97;4982098;28;20031;-96
2023/01/27 13:47:39;;;;;;;9.77;4.70;;;;;;;4.39;91.19;102638.00;4967803;28;20061;-96
2023/01/27 13:50:19;;;;;;;11.57;5.32;;;;;;;4.37;90.17;102643.03;4960642;28;20042;-96
2023/01/27 13:52:49;;;;;;;8.98;4.40;;;;;;;4.34;89.53;102636.00;4965450;28;20042;-95
2023/01/27 13:55:15;;;;;;;9.23;4.55;;;;;;;4.38;90.51;102649.13;4963738;28;20607;-96
2023/01/27 13:57:59;;;;;;;10.38;4.55;;;;;;;4.38;90.43;102654.28;4980631;28;20089;-96
2023/01/27 14:00:40;;;;;;;9.82;4.63;;;;;;;4.38;90.38;102643.97;4963366;28;20027;-96
2023/01/27 14:03:29;;;;;;;10.32;5.15;;;;;;;4.39;90.80;102653.47;4963622;28;20101;-95
2023/01/27 14:06:09;;;;;;;11.30;4.93;;;;;;;4.39;90.83;102648.31;4928585;28;20038;-96
2023/01/27 14:08:48;;;;;;;9.63;4.57;;;;;;;4.38;90.88;102650.00;4965387;28;20060;-96
2023/01/27 14:11:14;;;;;;;;;;;;;;;4.45;92.03;102646.25;4963664;28;20660;-96
2023/01/27 14:14:02;;;;;;;9.68;4.72;;;;;;;4.38;90.88;102649.13;4965385;28;20035;-96